Time;durP1;ratioP1;P1;durP2;ratioP2;P2;SDS_P1;SDS_P2;PMS_P1;PMS_P2;Temp;Humidity;BMP_temperature;BMP_pressure;BME280_temperature;BME280_humidity;BME280_pressure;Samples;Min_cycle;Max_cycle;Signal;HPM_P1;HPM_P2
2021/08/18 00:01:28;;;;;;;2.00;1.13;;;20.80;90.00;;;;;;4973728;28;20050;-82
2021/08/18 00:03:54;;;;;;;2.20;1.45;;;20.80;90.10;;;;;;4972912;28;20082;-81
2021/08/18 00:06:20;;;;;;;2.22;1.20;;;20.80;90.00;;;;;;4972875;28;20034;-80
2021/08/18 00:08:45;;;;;;;2.35;1.23;;;20.80;90.00;;;;;;4954358;29;20057;-80
2021/08/18 00:11:11;;;;;;;2.58;1.25;;;20.80;90.00;;;;;;4965533;28;20569;-82
2021/08/18 00:13:37;;;;;;;2.47;1.40;;;20.80;90.10;;;;;;4941388;28;20392;-81
2021/08/18 00:16:03;;;;;;;2.97;1.80;;;20.80;90.10;;;;;;4954767;28;20031;-80
2021/08/18 00:18:29;;;;;;;2.20;1.10;;;20.80;90.10;;;;;;4956078;28;20039;-82
2021/08/18 00:20:55;;;;;;;2.80;1.42;;;20.80;90.10;;;;;;4973095;28;20031;-82
2021/08/18 00:23:21;;;;;;;2.40;1.42;;;20.80;90.10;;;;;;4973105;28;20106;-82
2021/08/18 00:25:47;;;;;;;2.40;1.20;;;20.80;90.10;;;;;;4965634;28;20051;-80
2021/08/18 00:28:12;;;;;;;3.70;1.38;;;20.80;90.10;;;;;;4960767;28;20085;-80
2021/08/18 00:30:39;;;;;;;3.53;1.17;;;20.80;90.30;;;;;;4958133;28;20037;-80
2021/08/18 00:33:05;;;;;;;3.10;1.40;;;20.80;90.50;;;;;;4937464;28;20188;-80
2021/08/18 00:35:31;;;;;;;2.03;1.20;;;20.80;90.90;;;;;;4972512;28;20026;-82
2021/08/18 00:37:57;;;;;;;3.15;1.83;;;20.80;91.70;;;;;;4972066;28;20062;-81
2021/08/18 00:40:23;;;;;;;1.83;1.02;;;20.90;92.00;;;;;;4968289;28;20402;-79
2021/08/18 00:42:48;;;;;;;2.30;1.33;;;20.80;92.00;;;;;;4953765;28;20038;-82
2021/08/18 00:45:15;;;;;;;2.50;1.55;;;20.80;92.10;;;;;;4953062;28;20384;-80
2021/08/18 00:48:01;;;;;;;2.15;1.27;;;20.90;92.10;;;;;;4954359;28;20054;-82
2021/08/18 00:50:28;;;;;;;1.30;0.98;;;20.90;92.20;;;;;;4958698;28;20061;-81
2021/08/18 00:52:54;;;;;;;2.83;1.17;;;20.80;92.20;;;;;;4972536;28;20035;-82
2021/08/18 00:55:22;;;;;;;3.70;1.40;;;20.80;92.30;;;;;;4970601;28;20372;-80
2021/08/18 00:57:48;;;;;;;2.22;1.20;;;20.90;92.30;;;;;;4958365;28;20054;-82
2021/08/18 01:00:16;;;;;;;4.15;1.55;;;20.90;92.30;;;;;;4961450;28;20023;-81
2021/08/18 01:02:46;;;;;;;2.45;1.20;;;20.90;92.30;;;;;;4953200;29;20499;-81
2021/08/18 01:05:19;;;;;;;3.15;1.70;;;20.80;92.20;;;;;;4952886;28;20130;-82
2021/08/18 01:07:47;;;;;;;2.15;1.42;;;20.80;92.20;;;;;;4952050;28;20082;-81
2021/08/18 01:10:18;;;;;;;3.13;1.20;;;20.90;92.30;;;;;;4952604;28;20027;-82
2021/08/18 01:12:43;;;;;;;2.20;1.20;;;20.80;92.20;;;;;;4953109;28;20102;-81
2021/08/18 01:15:15;;;;;;;2.40;1.30;;;20.90;92.30;;;;;;4952729;28;20055;-82
2021/08/18 01:17:42;;;;;;;2.30;0.93;;;20.80;92.20;;;;;;4964654;28;20030;-80
2021/08/18 01:20:15;;;;;;;2.17;1.38;;;20.80;92.30;;;;;;4968350;28;20051;-82
2021/08/18 01:22:42;;;;;;;2.25;1.17;;;20.80;92.30;;;;;;4935867;29;20035;-81
2021/08/18 01:25:08;;;;;;;2.30;1.40;;;20.80;92.20;;;;;;4959804;28;20117;-82
2021/08/18 01:27:36;;;;;;;1.83;1.10;;;20.80;92.20;;;;;;4958822;28;20390;-80
2021/08/18 01:30:05;;;;;;;2.47;1.60;;;20.80;92.20;;;;;;4952661;29;20027;-80
2021/08/18 01:32:44;;;;;;;2.30;1.38;;;20.80;92.20;;;;;;4953983;28;20086;-83
2021/08/18 01:35:37;;;;;;;2.20;1.13;;;20.80;92.20;;;;;;4970380;28;20023;-80
2021/08/18 01:38:05;;;;;;;2.58;1.40;;;20.80;92.20;;;;;;4970398;28;20062;-80
2021/08/18 01:40:32;;;;;;;2.00;1.40;;;20.80;92.20;;;;;;4971804;28;20026;-81
2021/08/18 01:42:58;;;;;;;2.08;1.27;;;20.80;92.50;;;;;;4969749;28;20042;-80
2021/08/18 01:45:32;;;;;;;1.77;1.30;;;20.80;92.20;;;;;;4957852;28;20050;-80
2021/08/18 01:48:05;;;;;;;2.42;1.52;;;20.80;92.20;;;;;;4953492;28;20377;-80
2021/08/18 01:50:30;;;;;;;1.52;1.02;;;20.80;92.20;;;;;;4958673;28;20554;-80
2021/08/18 01:52:57;;;;;;;2.03;1.52;;;20.80;92.10;;;;;;4971943;28;20110;-80
2021/08/18 01:55:26;;;;;;;2.17;1.25;;;20.80;92.10;;;;;;4969290;28;20067;-79
2021/08/18 01:57:53;;;;;;;3.28;1.52;;;20.80;92.10;;;;;;4961463;28;20026;-79
2021/08/18 02:00:18;;;;;;;2.55;1.33;;;20.80;92.10;;;;;;4957238;28;20071;-79
2021/08/18 02:02:44;;;;;;;3.45;1.50;;;20.80;92.10;;;;;;4952506;29;20035;-80
2021/08/18 02:05:11;;;;;;;4.50;1.30;;;20.80;92.10;;;;;;4952469;29;20377;-82
2021/08/18 02:07:37;;;;;;;2.63;1.40;;;20.80;92.10;;;;;;4963488;28;20031;-80
2021/08/18 02:10:10;;;;;;;2.83;1.23;;;20.70;92.00;;;;;;4971418;28;20025;-80
2021/08/18 02:12:37;;;;;;;2.25;1.25;;;20.70;92.10;;;;;;4964295;28;20038;-80
2021/08/18 02:15:12;;;;;;;2.72;1.50;;;20.70;92.00;;;;;;4938505;28;20059;-80
2021/08/18 02:17:37;;;;;;;2.60;1.20;;;20.70;92.00;;;;;;4956309;29;20559;-79
2021/08/18 02:20:06;;;;;;;3.03;1.17;;;20.70;92.10;;;;;;4957152;28;20027;-81
2021/08/18 02:22:32;;;;;;;2.03;1.35;;;20.70;92.00;;;;;;4964369;28;20015;-81
2021/08/18 02:24:57;;;;;;;2.65;1.20;;;20.70;92.00;;;;;;4975039;28;20045;-79
2021/08/18 02:27:23;;;;;;;2.17;1.33;;;20.70;92.00;;;;;;4962380;28;20399;-79
2021/08/18 02:29:49;;;;;;;1.77;1.15;;;20.70;92.00;;;;;;4956054;29;20402;-79
2021/08/18 02:32:15;;;;;;;1.83;1.10;;;20.70;91.90;;;;;;4938597;29;20062;-79
2021/08/18 02:34:40;;;;;;;1.67;1.10;;;20.70;91.90;;;;;;4956026;29;20070;-79
2021/08/18 02:37:06;;;;;;;2.65;1.35;;;20.70;91.90;;;;;;4958372;28;20038;-79
2021/08/18 02:39:32;;;;;;;2.90;1.48;;;20.70;91.90;;;;;;4974815;28;20026;-80
2021/08/18 02:41:58;;;;;;;2.00;1.27;;;20.70;91.90;;;;;;4973056;28;20031;-82
2021/08/18 02:44:24;;;;;;;2.83;1.05;;;20.70;91.90;;;;;;4973642;28;20038;-80
2021/08/18 02:46:49;;;;;;;1.40;1.15;;;20.70;91.90;;;;;;4973581;28;20483;-80
2021/08/18 02:49:17;;;;;;;1.95;1.02;;;20.70;91.90;;;;;;4974488;28;20030;-81
2021/08/18 02:51:44;;;;;;;1.98;1.23;;;20.70;91.90;;;;;;4975016;28;20022;-81
2021/08/18 02:54:10;;;;;;;2.58;1.50;;;20.70;91.90;;;;;;4974703;28;20102;-80
2021/08/18 02:56:35;;;;;;;1.70;1.20;;;20.70;91.90;;;;;;4956829;28;20110;-81
2021/08/18 02:59:01;;;;;;;3.15;1.33;;;20.70;91.90;;;;;;4968103;28;20483;-80
2021/08/18 03:01:27;;;;;;;2.03;1.20;;;20.70;91.90;;;;;;4974329;28;20078;-82
2021/08/18 03:03:52;;;;;;;2.25;1.58;;;20.70;91.90;;;;;;4974325;28;20074;-80
2021/08/18 03:06:18;;;;;;;2.88;1.00;;;20.70;91.90;;;;;;4975021;28;20461;-80
2021/08/18 03:08:43;;;;;;;5.55;1.50;;;20.70;91.90;;;;;;4974677;28;20018;-84
2021/08/18 03:11:09;;;;;;;3.50;1.60;;;20.60;91.90;;;;;;4974442;28;20026;-84
2021/08/18 03:13:35;;;;;;;3.72;1.23;;;20.60;91.80;;;;;;4966346;28;20519;-80
2021/08/18 03:16:00;;;;;;;4.07;1.40;;;20.70;91.90;;;;;;4955011;28;20372;-80
2021/08/18 03:18:27;;;;;;;2.00;1.27;;;20.70;91.90;;;;;;4974205;28;20031;-83
2021/08/18 03:20:53;;;;;;;2.95;1.48;;;20.60;91.80;;;;;;4974145;28;20034;-83
2021/08/18 03:23:19;;;;;;;2.33;1.05;;;20.60;91.80;;;;;;4974251;28;20027;-81
2021/08/18 03:25:45;;;;;;;2.90;1.13;;;20.60;91.80;;;;;;4973602;28;20137;-80
2021/08/18 03:28:10;;;;;;;1.65;1.00;;;20.60;91.80;;;;;;4969684;28;20043;-83
2021/08/18 03:30:36;;;;;;;2.30;1.20;;;20.60;91.80;;;;;;4954987;29;20361;-83
2021/08/18 03:33:02;;;;;;;4.40;1.40;;;20.60;91.80;;;;;;4937500;29;20118;-82
2021/08/18 03:35:28;;;;;;;2.00;1.40;;;20.60;91.80;;;;;;4954937;29;20035;-80
2021/08/18 03:37:53;;;;;;;2.78;1.60;;;20.60;91.80;;;;;;4954366;28;20532;-83
2021/08/18 03:40:19;;;;;;;1.88;1.15;;;20.60;91.70;;;;;;4954960;28;20027;-85
2021/08/18 03:42:45;;;;;;;2.78;1.45;;;20.60;91.70;;;;;;4955315;28;20082;-81
2021/08/18 03:45:11;;;;;;;1.60;1.00;;;20.60;91.80;;;;;;4970472;28;20046;-80
2021/08/18 03:47:38;;;;;;;1.70;1.08;;;20.60;91.80;;;;;;4972204;28;20257;-82
2021/08/18 03:50:05;;;;;;;2.80;1.42;;;20.60;91.80;;;;;;4973343;28;20031;-83
2021/08/18 03:52:31;;;;;;;2.58;1.38;;;20.60;91.80;;;;;;4973956;28;20374;-82
2021/08/18 03:54:57;;;;;;;1.90;1.25;;;20.60;91.80;;;;;;4973202;28;20103;-81
2021/08/18 03:57:22;;;;;;;2.08;1.10;;;20.60;91.80;;;;;;4973301;28;20031;-82
2021/08/18 03:59:48;;;;;;;2.88;1.40;;;20.60;91.80;;;;;;4951615;28;20031;-80
2021/08/18 04:02:13;;;;;;;2.70;1.25;;;20.60;91.80;;;;;;4956442;28;20053;-80
2021/08/18 04:04:39;;;;;;;2.65;1.50;;;20.60;91.80;;;;;;4973644;28;20035;-81
2021/08/18 04:07:05;;;;;;;2.22;1.17;;;20.60;91.80;;;;;;4972118;28;20090;-82
2021/08/18 04:09:30;;;;;;;1.85;1.08;;;20.60;91.80;;;;;;4972995;28;20031;-84
2021/08/18 04:11:56;;;;;;;1.90;1.23;;;20.60;91.80;;;;;;4972743;28;20035;-82
2021/08/18 04:14:22;;;;;;;4.05;1.40;;;20.60;91.80;;;;;;4965076;28;20032;-81
2021/08/18 04:16:47;;;;;;;3.65;1.30;;;20.60;91.80;;;;;;4959616;28;20027;-83
2021/08/18 04:19:13;;;;;;;3.45;1.20;;;20.50;91.80;;;;;;4955772;28;20501;-83
2021/08/18 04:21:38;;;;;;;2.30;1.58;;;20.60;91.80;;;;;;4942445;29;20027;-81
2021/08/18 04:24:04;;;;;;;1.60;1.10;;;20.60;91.80;;;;;;4958683;28;20058;-80
2021/08/18 04:26:30;;;;;;;3.67;1.40;;;20.60;91.80;;;;;;4964296;28;20031;-81
2021/08/18 04:28:56;;;;;;;2.00;1.30;;;20.60;91.70;;;;;;4954441;28;20055;-84
2021/08/18 04:31:22;;;;;;;2.20;1.38;;;20.60;91.80;;;;;;4944677;29;20031;-81
2021/08/18 04:33:48;;;;;;;2.70;1.30;;;20.50;91.70;;;;;;4954015;28;20031;-82
2021/08/18 04:36:15;;;;;;;1.63;1.23;;;20.50;91.70;;;;;;4952756;28;20495;-80
2021/08/18 04:38:41;;;;;;;2.13;1.30;;;20.50;91.70;;;;;;4968623;28;20057;-82
2021/08/18 04:41:07;;;;;;;3.53;1.30;;;20.50;91.70;;;;;;4971761;28;20434;-81
2021/08/18 04:43:32;;;;;;;2.08;1.17;;;20.50;91.70;;;;;;4954474;28;20546;-83
2021/08/18 04:45:58;;;;;;;4.18;1.40;;;20.50;91.70;;;;;;4957108;28;20073;-83
2021/08/18 04:48:23;;;;;;;2.58;1.20;;;20.50;91.70;;;;;;4954220;28;20094;-83
2021/08/18 04:50:49;;;;;;;2.40;1.17;;;20.50;91.70;;;;;;4970723;28;20042;-75
2021/08/18 04:53:15;;;;;;;4.25;1.30;;;20.50;91.70;;;;;;4954381;28;20034;-81
2021/08/18 04:55:41;;;;;;;3.10;1.48;;;20.50;91.70;;;;;;4964227;28;20407;-84
2021/08/18 04:58:07;;;;;;;3.22;1.50;;;20.50;91.80;;;;;;4967931;28;20027;-82
2021/08/18 05:00:33;;;;;;;2.13;1.15;;;20.50;91.70;;;;;;4970556;28;20034;-82
2021/08/18 05:02:59;;;;;;;2.50;1.60;;;20.50;91.80;;;;;;4972251;28;20023;-86
2021/08/18 05:05:25;;;;;;;2.20;1.30;;;20.50;91.70;;;;;;4969055;28;20027;-82
2021/08/18 05:07:51;;;;;;;2.45;1.30;;;20.50;91.80;;;;;;4957580;28;20406;-83
2021/08/18 05:10:17;;;;;;;3.38;1.42;;;20.50;91.80;;;;;;4955282;28;20035;-85
2021/08/18 05:12:43;;;;;;;3.05;1.40;;;20.50;91.80;;;;;;4962025;28;20114;-83
2021/08/18 05:15:09;;;;;;;2.65;1.25;;;20.50;91.80;;;;;;4958302;28;20062;-82
2021/08/18 05:17:35;;;;;;;3.47;1.35;;;20.50;91.80;;;;;;4966830;28;20031;-86
2021/08/18 05:20:01;;;;;;;2.97;1.20;;;20.50;91.80;;;;;;4953211;28;20031;-86
2021/08/18 05:22:26;;;;;;;1.65;1.15;;;20.50;91.80;;;;;;4953170;28;20105;-84
2021/08/18 05:24:52;;;;;;;3.13;1.08;;;20.50;91.80;;;;;;4958527;28;20047;-80
2021/08/18 05:27:18;;;;;;;2.20;1.33;;;20.50;91.90;;;;;;4964362;28;20034;-81
2021/08/18 05:29:43;;;;;;;2.13;1.35;;;20.50;91.80;;;;;;4957644;28;20022;-80
2021/08/18 05:32:10;;;;;;;2.40;1.20;;;20.50;91.90;;;;;;4971823;28;20038;-79
2021/08/18 05:34:35;;;;;;;1.60;1.05;;;20.50;91.90;;;;;;4972469;28;20375;-81
2021/08/18 05:37:01;;;;;;;3.33;1.38;;;20.50;91.90;;;;;;4971752;28;20037;-86
2021/08/18 05:39:26;;;;;;;2.78;1.55;;;20.50;91.90;;;;;;4971374;28;20038;-87
2021/08/18 05:41:52;;;;;;;2.53;1.33;;;20.50;91.90;;;;;;4951458;28;20487;-82
2021/08/18 05:44:18;;;;;;;2.97;1.48;;;20.50;91.90;;;;;;4957367;28;20059;-80
2021/08/18 05:46:43;;;;;;;3.70;1.23;;;20.50;91.90;;;;;;4961983;28;20114;-83
2021/08/18 05:49:09;;;;;;;2.00;1.25;;;20.50;91.90;;;;;;4939561;29;20043;-86
2021/08/18 05:51:35;;;;;;;2.58;1.73;;;20.50;91.90;;;;;;4957732;28;20034;-86
2021/08/18 05:54:00;;;;;;;2.33;1.40;;;20.50;91.90;;;;;;4957013;28;20019;-85
2021/08/18 05:56:26;;;;;;;4.65;1.40;;;20.50;91.90;;;;;;4961566;28;20031;-85
2021/08/18 05:58:51;;;;;;;4.13;1.35;;;20.40;91.90;;;;;;4963673;28;20500;-80
2021/08/18 06:01:17;;;;;;;3.15;1.33;;;20.50;92.00;;;;;;4957027;29;20487;-85
2021/08/18 06:03:44;;;;;;;2.25;1.10;;;20.40;91.90;;;;;;4958122;28;20061;-83
2021/08/18 06:06:10;;;;;;;2.65;1.48;;;20.40;92.00;;;;;;4975674;28;20078;-84
2021/08/18 06:08:35;;;;;;;2.47;1.30;;;20.40;92.00;;;;;;4969201;28;20486;-85
2021/08/18 06:11:01;;;;;;;4.03;1.42;;;20.50;92.00;;;;;;4975647;28;20037;-84
2021/08/18 06:13:28;;;;;;;3.00;1.45;;;20.50;92.00;;;;;;4975350;28;20387;-83
2021/08/18 06:15:54;;;;;;;2.38;1.70;;;20.40;92.00;;;;;;4950020;29;20126;-84
2021/08/18 06:18:19;;;;;;;3.00;1.45;;;20.40;92.10;;;;;;4956766;29;20106;-84
2021/08/18 06:20:45;;;;;;;2.70;1.20;;;20.40;92.10;;;;;;4957211;28;20027;-82
2021/08/18 06:23:11;;;;;;;1.88;1.35;;;20.50;92.10;;;;;;4955752;28;20066;-84
2021/08/18 06:25:36;;;;;;;2.45;1.50;;;20.40;92.10;;;;;;4963679;28;20042;-83
2021/08/18 06:28:02;;;;;;;4.00;1.65;;;20.50;92.20;;;;;;4966292;28;20026;-85
2021/08/18 06:30:28;;;;;;;4.75;1.98;;;20.50;92.30;;;;;;4974273;28;20060;-82
2021/08/18 06:32:54;;;;;;;5.72;2.42;;;20.50;92.40;;;;;;4973143;28;20038;-84
2021/08/18 06:35:20;;;;;;;3.30;2.05;;;20.50;92.60;;;;;;4957444;28;20550;-84
2021/08/18 06:37:45;;;;;;;6.65;2.08;;;20.50;92.80;;;;;;4965574;28;20026;-84
2021/08/18 06:40:11;;;;;;;8.35;2.22;;;20.50;92.80;;;;;;4956918;28;20035;-82
2021/08/18 06:42:42;;;;;;;5.25;3.00;;;20.50;93.10;;;;;;4955913;28;20032;-83
2021/08/18 06:45:10;;;;;;;6.78;3.38;;;20.60;93.40;;;;;;4955622;29;20050;-81
2021/08/18 06:47:36;;;;;;;7.85;3.10;;;20.60;93.40;;;;;;4969161;28;20054;-83
2021/08/18 06:50:02;;;;;;;8.32;2.70;;;20.60;93.60;;;;;;4969504;28;20033;-80
2021/08/18 06:52:30;;;;;;;5.97;2.67;;;20.60;93.70;;;;;;4955448;28;20491;-82
2021/08/18 06:54:56;;;;;;;5.10;2.97;;;20.60;93.90;;;;;;4962042;28;20031;-80
2021/08/18 06:57:21;;;;;;;10.35;3.33;;;20.60;94.00;;;;;;4963475;28;20031;-79
2021/08/18 06:59:47;;;;;;;7.18;2.92;;;20.70;94.00;;;;;;4962403;28;20037;-86
2021/08/18 07:02:13;;;;;;;4.93;2.50;;;20.70;94.00;;;;;;4965711;28;20455;-83
2021/08/18 07:04:38;;;;;;;6.35;2.70;;;20.70;93.90;;;;;;4970629;28;20029;-83
2021/08/18 07:07:04;;;;;;;11.77;2.45;;;20.70;93.90;;;;;;4957508;28;20027;-83
2021/08/18 07:09:30;;;;;;;10.05;3.72;;;20.70;93.90;;;;;;4975195;28;20023;-83
2021/08/18 07:11:56;;;;;;;5.80;3.35;;;20.70;93.90;;;;;;4974956;28;20114;-83
2021/08/18 07:14:21;;;;;;;6.95;3.08;;;20.70;93.80;;;;;;4975312;28;20153;-81
2021/08/18 07:16:47;;;;;;;8.38;3.03;;;20.70;93.80;;;;;;4975407;28;20030;-82
2021/08/18 07:19:12;;;;;;;7.30;2.50;;;20.70;93.80;;;;;;4975662;28;20034;-83
2021/08/18 07:21:38;;;;;;;5.88;2.85;;;20.80;94.10;;;;;;4975358;28;20427;-84
2021/08/18 07:24:04;;;;;;;4.13;2.60;;;20.70;93.80;;;;;;4974985;28;20036;-83
2021/08/18 07:26:29;;;;;;;4.57;1.90;;;20.70;93.70;;;;;;4975122;28;20045;-83
2021/08/18 07:28:57;;;;;;;6.05;2.13;;;20.70;93.70;;;;;;4957795;28;20051;-83
2021/08/18 07:31:24;;;;;;;7.38;2.60;;;20.70;93.70;;;;;;4957638;28;20041;-84
2021/08/18 07:33:49;;;;;;;4.07;2.50;;;20.70;93.70;;;;;;4976039;28;20019;-84
2021/08/18 07:36:15;;;;;;;4.13;2.10;;;20.70;93.60;;;;;;4973950;28;20055;-83
2021/08/18 07:38:41;;;;;;;5.57;2.63;;;20.80;93.60;;;;;;4975665;28;20027;-83
2021/08/18 07:41:06;;;;;;;3.95;2.10;;;20.80;93.50;;;;;;4975438;28;20388;-84
2021/08/18 07:43:32;;;;;;;4.45;2.30;;;20.80;93.50;;;;;;4975851;28;20122;-83
2021/08/18 07:45:58;;;;;;;3.80;1.80;;;20.80;93.50;;;;;;4974880;28;20042;-83
2021/08/18 07:48:24;;;;;;;2.85;1.92;;;20.80;93.40;;;;;;4974943;28;20061;-83
2021/08/18 07:50:50;;;;;;;5.40;2.03;;;20.80;93.40;;;;;;4975252;28;20030;-83
2021/08/18 07:53:15;;;;;;;6.07;2.13;;;20.80;93.40;;;;;;4957220;28;20058;-83
2021/08/18 07:55:41;;;;;;;4.95;2.20;;;20.80;93.30;;;;;;4974819;28;20065;-83
2021/08/18 07:58:06;;;;;;;4.18;2.03;;;20.80;93.30;;;;;;4956900;28;20081;-83
2021/08/18 08:00:37;;;;;;;3.95;2.30;;;20.80;93.30;;;;;;4957310;28;20102;-83
2021/08/18 08:03:02;;;;;;;2.92;1.80;;;20.80;93.30;;;;;;4956710;28;20062;-83
2021/08/18 08:05:28;;;;;;;5.55;1.83;;;20.80;93.20;;;;;;4974041;28;20121;-83
2021/08/18 08:07:54;;;;;;;4.30;2.08;;;20.80;93.20;;;;;;4973844;28;20026;-83
2021/08/18 08:10:19;;;;;;;5.47;2.25;;;20.80;93.20;;;;;;4973700;28;20402;-82
2021/08/18 08:12:45;;;;;;;3.08;1.92;;;20.80;93.20;;;;;;4973748;28;20031;-84
2021/08/18 08:15:11;;;;;;;3.92;1.80;;;20.80;93.10;;;;;;4973646;28;20033;-84
2021/08/18 08:17:37;;;;;;;3.03;1.60;;;20.80;93.10;;;;;;4973620;28;20026;-83
2021/08/18 08:20:04;;;;;;;3.42;1.52;;;20.80;93.00;;;;;;4973492;28;20027;-83
2021/08/18 08:22:30;;;;;;;5.40;1.88;;;20.80;93.00;;;;;;4956073;28;20035;-81
2021/08/18 08:24:55;;;;;;;4.03;1.98;;;20.90;93.10;;;;;;4974077;28;20102;-84
2021/08/18 08:27:21;;;;;;;2.85;1.52;;;20.80;93.00;;;;;;4974269;28;20027;-83
2021/08/18 08:29:47;;;;;;;2.15;1.40;;;20.90;93.00;;;;;;4956852;28;20031;-83
2021/08/18 08:32:12;;;;;;;3.47;1.85;;;20.80;92.90;;;;;;4973724;28;20073;-83
2021/08/18 08:34:38;;;;;;;3.63;2.03;;;20.90;92.90;;;;;;4973655;28;20022;-82
2021/08/18 08:37:04;;;;;;;2.65;1.63;;;20.90;92.90;;;;;;4956158;28;20031;-83
2021/08/18 08:39:30;;;;;;;3.13;1.70;;;20.80;92.90;;;;;;4973793;28;20034;-82
2021/08/18 08:41:56;;;;;;;1.83;1.27;;;20.80;92.90;;;;;;4973070;28;20035;-83
2021/08/18 08:44:24;;;;;;;3.50;1.42;;;20.80;92.90;;;;;;4973174;28;20397;-82
2021/08/18 08:46:52;;;;;;;4.70;2.15;;;20.80;92.80;;;;;;4972170;28;20543;-83
2021/08/18 08:49:21;;;;;;;3.75;1.98;;;20.80;92.90;;;;;;4973442;28;20153;-83
2021/08/18 08:51:49;;;;;;;2.67;1.70;;;20.80;92.80;;;;;;4972118;28;20096;-83
2021/08/18 08:54:16;;;;;;;2.58;1.48;;;20.80;92.80;;;;;;4972830;28;20391;-83
2021/08/18 08:56:42;;;;;;;3.50;1.60;;;20.80;92.80;;;;;;4955503;28;20035;-83
2021/08/18 08:59:08;;;;;;;3.58;1.52;;;20.80;92.80;;;;;;4972741;28;20482;-82
2021/08/18 09:02:06;;;;;;;3.03;1.30;;;20.80;92.80;;;;;;4955471;28;20023;-83
2021/08/18 09:04:41;;;;;;;2.65;1.60;;;20.80;92.80;;;;;;4972937;28;20031;-83
2021/08/18 09:07:08;;;;;;;2.35;1.55;;;20.80;92.70;;;;;;4972804;28;20065;-83
2021/08/18 09:09:35;;;;;;;3.65;1.77;;;20.80;93.10;;;;;;4972894;28;20031;-83
2021/08/18 09:12:05;;;;;;;2.78;1.67;;;20.80;92.80;;;;;;4972569;28;20030;-83
2021/08/18 09:14:31;;;;;;;3.40;1.58;;;20.80;92.70;;;;;;4972666;28;20089;-83
2021/08/18 09:16:57;;;;;;;4.25;1.80;;;20.90;92.60;;;;;;4955187;28;20027;-83
2021/08/18 09:19:32;;;;;;;3.65;1.88;;;21.00;92.50;;;;;;4972608;28;20094;-82
2021/08/18 09:22:06;;;;;;;2.70;1.60;;;20.90;92.40;;;;;;4972147;28;20041;-83
2021/08/18 09:24:33;;;;;;;4.38;1.58;;;20.90;92.40;;;;;;4972527;28;20058;-84
2021/08/18 09:27:08;;;;;;;3.70;1.50;;;20.90;92.30;;;;;;4972444;28;20027;-81
2021/08/18 09:29:44;;;;;;;2.17;1.42;;;20.90;92.40;;;;;;4955084;28;20030;-82
2021/08/18 09:32:32;;;;;;;2.20;1.40;;;21.00;92.30;;;;;;4954968;28;20479;-83
2021/08/18 09:35:09;;;;;;;2.78;1.40;;;21.00;92.30;;;;;;4972355;28;20082;-83
2021/08/18 09:37:45;;;;;;;1.90;1.30;;;21.00;92.20;;;;;;4972588;28;20015;-83
2021/08/18 09:40:24;;;;;;;3.17;1.70;;;21.00;92.10;;;;;;4970924;28;20041;-83
2021/08/18 09:42:50;;;;;;;3.65;1.50;;;21.00;92.10;;;;;;4971442;28;20118;-83
2021/08/18 09:45:19;;;;;;;2.88;1.55;;;21.00;92.10;;;;;;4970963;28;20038;-83
2021/08/18 09:47:54;;;;;;;2.95;1.40;;;20.90;92.10;;;;;;4972363;28;20023;-82
2021/08/18 09:50:23;;;;;;;2.63;1.80;;;20.90;92.20;;;;;;4972680;28;20027;-83
2021/08/18 09:52:50;;;;;;;2.30;1.58;;;20.90;92.20;;;;;;4955319;28;20487;-82
2021/08/18 09:55:22;;;;;;;3.13;1.60;;;20.90;92.20;;;;;;4954937;28;20490;-83
2021/08/18 09:57:48;;;;;;;1.70;1.20;;;21.00;92.20;;;;;;4972630;28;20034;-83
2021/08/18 10:00:14;;;;;;;2.17;1.38;;;20.90;92.20;;;;;;4972105;28;20037;-82
2021/08/18 10:02:40;;;;;;;3.38;1.85;;;21.00;92.20;;;;;;4972197;28;20019;-83
2021/08/18 10:05:06;;;;;;;3.72;1.65;;;20.90;92.10;;;;;;4954934;28;20130;-83
2021/08/18 10:07:33;;;;;;;2.75;1.63;;;20.90;92.20;;;;;;4972235;28;20019;-84
2021/08/18 10:10:02;;;;;;;1.65;1.25;;;20.90;92.20;;;;;;4972200;28;20031;-83
2021/08/18 10:12:30;;;;;;;5.03;1.35;;;20.90;92.10;;;;;;4972431;28;20026;-82
2021/08/18 10:14:55;;;;;;;1.75;1.35;;;20.90;92.10;;;;;;4972186;28;20026;-82
2021/08/18 10:17:21;;;;;;;3.22;1.42;;;20.90;92.10;;;;;;4972600;28;20440;-83
2021/08/18 10:19:51;;;;;;;2.95;1.45;;;20.90;92.10;;;;;;4955065;28;20073;-83
2021/08/18 10:22:25;;;;;;;2.85;1.48;;;20.90;92.10;;;;;;4972467;28;20232;-83
2021/08/18 10:24:50;;;;;;;2.47;1.40;;;21.00;92.10;;;;;;4972273;28;20117;-83
2021/08/18 10:27:45;;;;;;;2.55;1.30;;;21.00;92.10;;;;;;4972114;28;20126;-82
2021/08/18 10:30:23;;;;;;;2.05;1.20;;;21.00;92.00;;;;;;4971943;28;20031;-83
2021/08/18 10:32:49;;;;;;;2.03;1.20;;;21.00;92.00;;;;;;4972299;28;20507;-83
2021/08/18 10:35:33;;;;;;;2.65;1.15;;;21.00;91.90;;;;;;4974213;28;20085;-82
2021/08/18 10:38:24;;;;;;;1.90;1.40;;;21.10;91.90;;;;;;4975139;28;20027;-83
2021/08/18 10:40:53;;;;;;;3.28;1.17;;;21.10;91.80;;;;;;4975837;28;20027;-83
2021/08/18 10:43:56;;;;;;;3.53;1.67;;;21.10;91.70;;;;;;4975826;28;20026;-82
2021/08/18 10:46:23;;;;;;;2.63;1.60;;;21.10;91.70;;;;;;4975236;28;20034;-82
2021/08/18 10:48:54;;;;;;;2.65;1.30;;;21.10;91.60;;;;;;4975429;28;20022;-83
2021/08/18 10:51:41;;;;;;;2.25;1.38;;;21.10;91.60;;;;;;4975533;28;20023;-82
2021/08/18 10:54:28;;;;;;;3.35;1.63;;;21.10;91.60;;;;;;4974779;28;20491;-83
2021/08/18 10:56:58;;;;;;;2.58;1.27;;;21.10;91.70;;;;;;4974882;28;20443;-83
2021/08/18 10:59:36;;;;;;;2.35;1.30;;;21.00;91.70;;;;;;4975052;28;20023;-82
2021/08/18 11:02:07;;;;;;;2.63;1.30;;;21.00;91.80;;;;;;4974613;28;20444;-83
2021/08/18 11:04:47;;;;;;;1.90;1.15;;;21.00;91.80;;;;;;4974851;28;20430;-83
2021/08/18 11:07:14;;;;;;;2.03;1.38;;;21.10;91.80;;;;;;4974629;28;20015;-82
2021/08/18 11:09:46;;;;;;;2.40;1.30;;;21.10;91.70;;;;;;4974923;28;20033;-83
2021/08/18 11:12:40;;;;;;;1.40;1.15;;;21.10;91.70;;;;;;4974553;28;20023;-82
2021/08/18 11:15:18;;;;;;;1.90;1.30;;;21.10;91.70;;;;;;4973063;28;20435;-82
2021/08/18 11:17:48;;;;;;;1.73;1.30;;;21.10;91.60;;;;;;4974759;28;20035;-83
2021/08/18 11:20:32;;;;;;;2.30;1.10;;;21.10;91.60;;;;;;4974571;28;20046;-83
2021/08/18 11:22:59;;;;;;;2.20;1.17;;;21.10;91.60;;;;;;4974464;28;20030;-83
2021/08/18 11:25:25;;;;;;;2.25;1.20;;;21.10;91.60;;;;;;4974448;28;20046;-83
2021/08/18 11:27:54;;;;;;;2.90;1.40;;;21.10;91.60;;;;;;4974862;28;20026;-83
2021/08/18 11:30:27;;;;;;;2.53;1.20;;;21.10;91.60;;;;;;4974786;28;20041;-83
2021/08/18 11:32:53;;;;;;;3.28;1.50;;;21.10;91.60;;;;;;4974289;28;20510;-83
2021/08/18 11:35:34;;;;;;;1.80;1.30;;;21.10;91.60;;;;;;4957347;28;20023;-83
2021/08/18 11:38:04;;;;;;;2.03;1.33;;;21.10;91.60;;;;;;4974105;28;20032;-82
2021/08/18 11:40:30;;;;;;;1.65;1.10;;;21.10;91.60;;;;;;4974269;28;20045;-82
2021/08/18 11:42:57;;;;;;;1.90;1.30;;;21.10;91.50;;;;;;4973821;28;20487;-84
2021/08/18 11:45:23;;;;;;;3.03;1.40;;;21.20;91.50;;;;;;4973884;28;20041;-83
2021/08/18 11:47:48;;;;;;;2.45;1.20;;;21.20;91.40;;;;;;4974530;28;20098;-84
2021/08/18 11:50:15;;;;;;;2.88;1.67;;;21.20;91.30;;;;;;4956238;28;20033;-82
2021/08/18 11:52:41;;;;;;;2.30;1.50;;;21.30;91.30;;;;;;4974028;28;20054;-83
2021/08/18 11:55:07;;;;;;;1.50;1.00;;;21.30;91.30;;;;;;4972509;28;20085;-82
2021/08/18 11:57:33;;;;;;;2.42;1.20;;;21.20;91.30;;;;;;4973956;28;20475;-83
2021/08/18 12:00:00;;;;;;;2.50;1.20;;;21.20;91.40;;;;;;4973689;28;20058;-83
2021/08/18 12:02:27;;;;;;;2.15;1.40;;;21.20;91.50;;;;;;4973865;28;20023;-82
2021/08/18 12:04:58;;;;;;;2.40;1.00;;;21.10;91.50;;;;;;4956206;28;20038;-83
2021/08/18 12:07:27;;;;;;;2.63;1.58;;;21.20;91.60;;;;;;4956719;28;20450;-82
2021/08/18 12:10:12;;;;;;;2.30;1.48;;;21.20;91.50;;;;;;4973549;28;20043;-82
2021/08/18 12:12:37;;;;;;;2.40;1.20;;;21.10;91.50;;;;;;4973941;28;20034;-83
2021/08/18 12:15:13;;;;;;;1.50;1.17;;;21.20;91.50;;;;;;4973815;28;20030;-83
2021/08/18 12:17:39;;;;;;;3.67;1.85;;;21.10;91.60;;;;;;4973967;28;20050;-83
2021/08/18 12:20:23;;;;;;;3.28;1.48;;;21.10;91.60;;;;;;4956460;28;20027;-83
2021/08/18 12:22:48;;;;;;;2.38;1.40;;;21.10;91.60;;;;;;4974689;28;20026;-83
2021/08/18 12:25:14;;;;;;;2.40;1.38;;;21.10;91.60;;;;;;4973720;28;20046;-83
2021/08/18 12:27:40;;;;;;;2.45;1.17;;;21.20;91.50;;;;;;4974055;28;20072;-83
2021/08/18 12:30:08;;;;;;;3.17;1.40;;;21.20;91.60;;;;;;4956467;28;20034;-83
2021/08/18 12:32:35;;;;;;;2.80;1.20;;;21.20;91.50;;;;;;4974391;28;20134;-83
2021/08/18 12:35:07;;;;;;;3.17;1.63;;;21.20;91.50;;;;;;4973747;28;20092;-83
2021/08/18 12:37:38;;;;;;;2.28;1.20;;;21.20;91.50;;;;;;4974281;28;20023;-83
2021/08/18 12:40:08;;;;;;;2.30;1.42;;;21.20;91.60;;;;;;4973624;28;20462;-84
2021/08/18 12:42:41;;;;;;;3.17;1.40;;;21.20;91.60;;;;;;4973503;28;20049;-83
2021/08/18 12:45:25;;;;;;;1.80;1.20;;;21.20;91.60;;;;;;4955902;28;20046;-83
2021/08/18 12:47:53;;;;;;;2.42;1.42;;;21.20;91.60;;;;;;4974104;28;20038;-83
2021/08/18 12:50:45;;;;;;;2.47;1.40;;;21.20;91.60;;;;;;4972933;28;20026;-82